sensor_id;sensor_type;location;lat;lon;timestamp;pressure;altitude;pressure_sealevel;temperature;humidity
69780;BME280;57052;55.602;38.096;2023-01-29T00:01:16;100588.88;;;1.12;71.44
69780;BME280;57052;55.602;38.096;2023-01-29T00:03:42;100612.09;;;1.25;70.94
69780;BME280;57052;55.602;38.096;2023-01-29T00:06:08;100604.28;;;1.23;71.11
69780;BME280;57052;55.602;38.096;2023-01-29T00:08:35;100599.31;;;1.20;71.36
69780;BME280;57052;55.602;38.096;2023-01-29T00:11:02;100588.44;;;1.15;71.43
69780;BME280;57052;55.602;38.096;2023-01-29T00:13:28;100576.94;;;1.02;71.60
69780;BME280;57052;55.602;38.096;2023-01-29T00:15:55;100588.81;;;1.06;71.44
69780;BME280;57052;55.602;38.096;2023-01-29T00:18:21;100583.69;;;1.04;71.43
69780;BME280;57052;55.602;38.096;2023-01-29T00:20:47;100583.03;;;0.96;71.59
69780;BME280;57052;55.602;38.096;2023-01-29T00:23:12;100581.19;;;0.96;71.58
69780;BME280;57052;55.602;38.096;2023-01-29T00:25:40;100581.00;;;0.98;71.51
69780;BME280;57052;55.602;38.096;2023-01-29T00:28:06;100579.78;;;1.00;71.39
69780;BME280;57052;55.602;38.096;2023-01-29T00:30:31;100588.00;;;1.05;71.53
69780;BME280;57052;55.602;38.096;2023-01-29T00:32:57;100580.44;;;1.09;71.63
69780;BME280;57052;55.602;38.096;2023-01-29T00:35:23;100584.34;;;1.13;71.72
69780;BME280;57052;55.602;38.096;2023-01-29T00:37:48;100571.00;;;1.13;71.23
69780;BME280;57052;55.602;38.096;2023-01-29T00:40:14;100585.44;;;1.25;71.01
69780;BME280;57052;55.602;38.096;2023-01-29T00:42:40;100576.56;;;1.18;71.55
69780;BME280;57052;55.602;38.096;2023-01-29T00:45:24;100572.22;;;1.10;70.98
69780;BME280;57052;55.602;38.096;2023-01-29T00:47:49;100570.59;;;1.09;71.37
69780;BME280;57052;55.602;38.096;2023-01-29T00:50:15;100554.00;;;1.07;71.16
69780;BME280;57052;55.602;38.096;2023-01-29T00:52:41;100559.72;;;1.11;71.43
69780;BME280;57052;55.602;38.096;2023-01-29T00:55:07;100566.09;;;1.10;71.11
69780;BME280;57052;55.602;38.096;2023-01-29T00:57:34;100555.44;;;1.10;71.11
69780;BME280;57052;55.602;38.096;2023-01-29T01:00:01;100550.09;;;1.10;70.86
69780;BME280;57052;55.602;38.096;2023-01-29T01:02:30;100555.00;;;1.13;70.98
69780;BME280;57052;55.602;38.096;2023-01-29T01:05:15;100552.56;;;1.11;71.28
69780;BME280;57052;55.602;38.096;2023-01-29T01:07:52;100549.50;;;1.14;70.76
69780;BME280;57052;55.602;38.096;2023-01-29T01:10:20;100548.44;;;1.15;70.71
69780;BME280;57052;55.602;38.096;2023-01-29T01:12:55;100541.09;;;1.17;70.60
69780;BME280;57052;55.602;38.096;2023-01-29T01:15:24;100519.28;;;1.01;71.01
69780;BME280;57052;55.602;38.096;2023-01-29T01:17:52;100556.28;;;1.23;70.42
69780;BME280;57052;55.602;38.096;2023-01-29T01:20:18;100540.28;;;1.23;70.32
69780;BME280;57052;55.602;38.096;2023-01-29T01:22:43;100547.66;;;1.28;70.62
69780;BME280;57052;55.602;38.096;2023-01-29T01:25:09;100544.81;;;1.29;70.90
69780;BME280;57052;55.602;38.096;2023-01-29T01:27:35;100543.78;;;1.30;70.75
69780;BME280;57052;55.602;38.096;2023-01-29T01:30:10;100539.88;;;1.26;70.49
69780;BME280;57052;55.602;38.096;2023-01-29T01:32:36;100529.22;;;1.20;70.59
69780;BME280;57052;55.602;38.096;2023-01-29T01:35:02;100518.91;;;1.10;70.42
69780;BME280;57052;55.602;38.096;2023-01-29T01:37:29;100541.09;;;1.17;70.46
69780;BME280;57052;55.602;38.096;2023-01-29T01:39:54;100548.66;;;1.20;70.45
69780;BME280;57052;55.602;38.096;2023-01-29T01:42:27;100541.72;;;1.19;70.82
69780;BME280;57052;55.602;38.096;2023-01-29T01:44:58;100511.13;;;1.09;70.89
69780;BME280;57052;55.602;38.096;2023-01-29T01:47:45;100530.63;;;1.16;70.44
69780;BME280;57052;55.602;38.096;2023-01-29T01:50:22;100529.56;;;1.10;70.46
69780;BME280;57052;55.602;38.096;2023-01-29T01:52:52;100520.16;;;1.14;70.59
69780;BME280;57052;55.602;38.096;2023-01-29T01:55:23;100521.63;;;1.17;70.68
69780;BME280;57052;55.602;38.096;2023-01-29T01:57:58;100496.34;;;1.00;70.69
69780;BME280;57052;55.602;38.096;2023-01-29T02:00:26;100528.16;;;1.14;70.60
69780;BME280;57052;55.602;38.096;2023-01-29T02:02:52;100512.97;;;1.08;70.39
69780;BME280;57052;55.602;38.096;2023-01-29T02:05:38;100506.22;;;1.12;70.71
69780;BME280;57052;55.602;38.096;2023-01-29T02:08:34;100513.22;;;1.20;70.51
69780;BME280;57052;55.602;38.096;2023-01-29T02:11:19;100500.28;;;1.17;70.71
69780;BME280;57052;55.602;38.096;2023-01-29T02:13:45;100506.22;;;1.12;70.56
69780;BME280;57052;55.602;38.096;2023-01-29T02:16:11;100504.56;;;1.11;70.69
69780;BME280;57052;55.602;38.096;2023-01-29T02:18:36;100504.19;;;1.14;70.70
69780;BME280;57052;55.602;38.096;2023-01-29T02:27:11;100493.09;;;1.11;70.64
69780;BME280;57052;55.602;38.096;2023-01-29T02:32:30;100491.63;;;1.02;71.02
69780;BME280;57052;55.602;38.096;2023-01-29T02:35:14;100485.25;;;0.96;70.92
69780;BME280;57052;55.602;38.096;2023-01-29T02:43:40;100483.00;;;0.93;71.05
69780;BME280;57052;55.602;38.096;2023-01-29T02:46:22;100468.44;;;0.96;71.55
69780;BME280;57052;55.602;38.096;2023-01-29T02:49:03;100465.59;;;1.04;71.06
69780;BME280;57052;55.602;38.096;2023-01-29T02:51:45;100467.44;;;1.03;70.55
69780;BME280;57052;55.602;38.096;2023-01-29T02:54:30;100469.69;;;1.00;71.01
69780;BME280;57052;55.602;38.096;2023-01-29T02:56:59;100471.75;;;1.04;70.72
69780;BME280;57052;55.602;38.096;2023-01-29T03:00:09;100465.38;;;0.92;71.12
69780;BME280;57052;55.602;38.096;2023-01-29T03:02:41;100453.06;;;0.98;71.04
69780;BME280;57052;55.602;38.096;2023-01-29T03:05:12;100453.72;;;1.00;70.89
69780;BME280;57052;55.602;38.096;2023-01-29T03:07:45;100449.38;;;1.05;70.76
69780;BME280;57052;55.602;38.096;2023-01-29T03:10:59;100443.25;;;1.11;71.02
69780;BME280;57052;55.602;38.096;2023-01-29T03:13:20;100439.34;;;1.01;71.09
69780;BME280;57052;55.602;38.096;2023-01-29T03:15:56;100425.41;;;1.05;71.11
69780;BME280;57052;55.602;38.096;2023-01-29T03:18:30;100438.75;;;1.12;70.55
69780;BME280;57052;55.602;38.096;2023-01-29T03:21:03;100440.59;;;1.18;70.65
69780;BME280;57052;55.602;38.096;2023-01-29T03:23:53;100439.78;;;1.17;70.35
69780;BME280;57052;55.602;38.096;2023-01-29T03:26:41;100435.47;;;1.16;70.45
69780;BME280;57052;55.602;38.096;2023-01-29T03:29:30;100427.25;;;1.11;70.44
69780;BME280;57052;55.602;38.096;2023-01-29T03:32:17;100434.03;;;1.14;70.24
69780;BME280;57052;55.602;38.096;2023-01-29T03:34:50;100426.22;;;0.99;70.41
69780;BME280;57052;55.602;38.096;2023-01-29T03:37:46;100424.19;;;1.01;69.97
69780;BME280;57052;55.602;38.096;2023-01-29T03:40:12;100426.84;;;1.01;69.66
69780;BME280;57052;55.602;38.096;2023-01-29T03:43:10;100424.34;;;0.93;69.05
69780;BME280;57052;55.602;38.096;2023-01-29T03:53:32;100398.53;;;1.00;69.67
69780;BME280;57052;55.602;38.096;2023-01-29T03:56:04;100396.69;;;1.01;69.16
69780;BME280;57052;55.602;38.096;2023-01-29T03:58:44;100391.16;;;0.96;69.07
69780;BME280;57052;55.602;38.096;2023-01-29T04:01:43;100397.09;;;0.91;69.03
69780;BME280;57052;55.602;38.096;2023-01-29T04:04:40;100377.22;;;0.87;69.04
69780;BME280;57052;55.602;38.096;2023-01-29T04:07:18;100389.31;;;0.90;68.99
69780;BME280;57052;55.602;38.096;2023-01-29T04:09:56;100381.50;;;0.88;69.06
69780;BME280;57052;55.602;38.096;2023-01-29T04:12:29;100387.06;;;0.93;69.37
69780;BME280;57052;55.602;38.096;2023-01-29T04:14:59;100370.03;;;0.88;69.01
69780;BME280;57052;55.602;38.096;2023-01-29T04:17:33;100363.91;;;0.87;69.19
69780;BME280;57052;55.602;38.096;2023-01-29T04:20:01;100367.19;;;0.89;69.21
69780;BME280;57052;55.602;38.096;2023-01-29T04:22:32;100379.47;;;0.84;69.30
69780;BME280;57052;55.602;38.096;2023-01-29T04:25:02;100370.03;;;0.81;69.40
69780;BME280;57052;55.602;38.096;2023-01-29T04:30:45;100370.47;;;0.85;69.01
69780;BME280;57052;55.602;38.096;2023-01-29T04:36:33;100363.91;;;0.94;69.20
69780;BME280;57052;55.602;38.096;2023-01-29T04:39:15;100357.94;;;0.98;68.87
69780;BME280;57052;55.602;38.096;2023-01-29T04:41:56;100357.75;;;0.93;68.78
69780;BME280;57052;55.602;38.096;2023-01-29T04:45:04;100349.97;;;0.85;68.56
69780;BME280;57052;55.602;38.096;2023-01-29T04:50:37;100343.19;;;0.89;68.58
69780;BME280;57052;55.602;38.096;2023-01-29T04:56:05;100350.78;;;0.79;67.99
69780;BME280;57052;55.602;38.096;2023-01-29T04:58:46;100351.38;;;0.75;67.71
69780;BME280;57052;55.602;38.096;2023-01-29T05:01:15;100346.06;;;0.75;68.66
69780;BME280;57052;55.602;38.096;2023-01-29T05:03:46;100354.03;;;0.81;68.55
69780;BME280;57052;55.602;38.096;2023-01-29T05:06:14;100354.03;;;0.81;68.17
69780;BME280;57052;55.602;38.096;2023-01-29T05:08:40;100350.16;;;0.77;68.43
69780;BME280;57052;55.602;38.096;2023-01-29T05:11:06;100349.53;;;0.75;67.97
69780;BME280;57052;55.602;38.096;2023-01-29T05:13:35;100345.44;;;0.79;68.35
69780;BME280;57052;55.602;38.096;2023-01-29T05:16:16;100349.53;;;0.75;68.16
69780;BME280;57052;55.602;38.096;2023-01-29T05:18:44;100348.28;;;0.71;67.94
69780;BME280;57052;55.602;38.096;2023-01-29T05:21:09;100336.81;;;0.71;68.43
69780;BME280;57052;55.602;38.096;2023-01-29T05:23:35;100334.16;;;0.71;68.29
69780;BME280;57052;55.602;38.096;2023-01-29T05:26:01;100323.91;;;0.68;68.56
69780;BME280;57052;55.602;38.096;2023-01-29T05:28:26;100338.25;;;0.73;68.45
69780;BME280;57052;55.602;38.096;2023-01-29T05:30:54;100342.13;;;0.71;67.87
69780;BME280;57052;55.602;38.096;2023-01-29T05:33:28;100343.19;;;0.70;67.69
69780;BME280;57052;55.602;38.096;2023-01-29T05:35:55;100335.16;;;0.50;67.85
69780;BME280;57052;55.602;38.096;2023-01-29T05:38:22;100341.72;;;0.60;67.76
69780;BME280;57052;55.602;38.096;2023-01-29T05:40:48;100341.09;;;0.58;67.82
69780;BME280;57052;55.602;38.096;2023-01-29T05:43:21;100347.03;;;0.60;67.61
69780;BME280;57052;55.602;38.096;2023-01-29T05:45:55;100350.13;;;0.64;67.42
69780;BME280;57052;55.602;38.096;2023-01-29T05:48:22;100346.44;;;0.65;67.95
69780;BME280;57052;55.602;38.096;2023-01-29T05:50:48;100340.69;;;0.68;67.95
69780;BME280;57052;55.602;38.096;2023-01-29T05:53:13;100350.75;;;0.66;67.75
69780;BME280;57052;55.602;38.096;2023-01-29T05:55:43;100346.25;;;0.67;67.39
69780;BME280;57052;55.602;38.096;2023-01-29T05:58:09;100342.56;;;0.68;67.66
69780;BME280;57052;55.602;38.096;2023-01-29T06:00:35;100346.44;;;0.72;67.71
69780;BME280;57052;55.602;38.096;2023-01-29T06:03:01;100344.22;;;0.75;67.62
69780;BME280;57052;55.602;38.096;2023-01-29T06:05:27;100336.00;;;0.70;67.77
69780;BME280;57052;55.602;38.096;2023-01-29T06:07:52;100327.38;;;0.68;67.24
69780;BME280;57052;55.602;38.096;2023-01-29T06:10:18;100332.72;;;0.75;67.17
69780;BME280;57052;55.602;38.096;2023-01-29T06:12:44;100329.66;;;0.71;67.29
69780;BME280;57052;55.602;38.096;2023-01-29T06:15:11;100330.91;;;0.82;66.95
69780;BME280;57052;55.602;38.096;2023-01-29T06:17:37;100340.31;;;0.84;67.00
69780;BME280;57052;55.602;38.096;2023-01-29T06:20:03;100348.72;;;0.88;67.37
69780;BME280;57052;55.602;38.096;2023-01-29T06:22:29;100341.75;;;0.93;67.07
69780;BME280;57052;55.602;38.096;2023-01-29T06:24:55;100340.09;;;0.86;66.73
69780;BME280;57052;55.602;38.096;2023-01-29T06:27:20;100333.97;;;0.85;66.80
69780;BME280;57052;55.602;38.096;2023-01-29T06:29:46;100331.72;;;0.82;66.90
69780;BME280;57052;55.602;38.096;2023-01-29T06:32:12;100333.97;;;0.79;66.96
69780;BME280;57052;55.602;38.096;2023-01-29T06:34:37;100316.75;;;0.75;66.97
69780;BME280;57052;55.602;38.096;2023-01-29T06:37:03;100321.47;;;0.79;67.03
69780;BME280;57052;55.602;38.096;2023-01-29T06:39:28;100324.94;;;0.86;66.73
69780;BME280;57052;55.602;38.096;2023-01-29T06:41:54;100326.56;;;0.81;66.50
69780;BME280;57052;55.602;38.096;2023-01-29T06:44:19;100329.25;;;0.81;66.78
69780;BME280;57052;55.602;38.096;2023-01-29T06:46:45;100329.06;;;0.82;66.59
69780;BME280;57052;55.602;38.096;2023-01-29T06:49:11;100336.81;;;0.71;66.86
69780;BME280;57052;55.602;38.096;2023-01-29T06:51:36;100329.66;;;0.64;66.71
69780;BME280;57052;55.602;38.096;2023-01-29T06:54:02;100324.72;;;0.61;66.75
69780;BME280;57052;55.602;38.096;2023-01-29T06:56:28;100326.16;;;0.64;67.00
69780;BME280;57052;55.602;38.096;2023-01-29T06:58:53;100303.41;;;0.55;67.31
69780;BME280;57052;55.602;38.096;2023-01-29T07:01:19;100318.16;;;0.64;67.26
69780;BME280;57052;55.602;38.096;2023-01-29T07:03:48;100307.72;;;0.62;67.24
69780;BME280;57052;55.602;38.096;2023-01-29T07:06:14;100313.84;;;0.63;67.74
69780;BME280;57052;55.602;38.096;2023-01-29T07:08:39;100304.03;;;0.63;67.67
69780;BME280;57052;55.602;38.096;2023-01-29T07:11:05;100307.13;;;0.67;67.60
69780;BME280;57052;55.602;38.096;2023-01-29T07:13:32;100312.22;;;0.62;67.80
69780;BME280;57052;55.602;38.096;2023-01-29T07:15:58;100309.75;;;0.60;67.62
69780;BME280;57052;55.602;38.096;2023-01-29T07:18:25;100298.31;;;0.60;67.99
69780;BME280;57052;55.602;38.096;2023-01-29T07:20:51;100300.09;;;0.53;68.00
69780;BME280;57052;55.602;38.096;2023-01-29T07:23:17;100313.25;;;0.61;67.91
69780;BME280;57052;55.602;38.096;2023-01-29T07:25:42;100304.63;;;0.59;68.07
69780;BME280;57052;55.602;38.096;2023-01-29T07:28:08;100302.59;;;0.54;68.13
69780;BME280;57052;55.602;38.096;2023-01-29T07:30:34;100255.44;;;0.35;68.00
69780;BME280;57052;55.602;38.096;2023-01-29T07:33:09;100285.19;;;0.52;68.44
69780;BME280;57052;55.602;38.096;2023-01-29T07:35:37;100265.91;;;0.43;68.09
69780;BME280;57052;55.602;38.096;2023-01-29T07:38:03;100287.63;;;0.67;68.17
69780;BME280;57052;55.602;38.096;2023-01-29T07:40:29;100288.84;;;0.71;67.97
69780;BME280;57052;55.602;38.096;2023-01-29T07:42:58;100292.78;;;0.75;68.36
69780;BME280;57052;55.602;38.096;2023-01-29T07:45:24;100278.19;;;0.71;68.27
69780;BME280;57052;55.602;38.096;2023-01-29T07:47:54;100283.16;;;0.80;67.71
69780;BME280;57052;55.602;38.096;2023-01-29T07:50:21;100287.44;;;0.75;67.53
69780;BME280;57052;55.602;38.096;2023-01-29T07:52:47;100290.72;;;0.83;68.03
69780;BME280;57052;55.602;38.096;2023-01-29T07:55:13;100280.28;;;0.82;67.86
69780;BME280;57052;55.602;38.096;2023-01-29T07:57:38;100280.69;;;0.85;67.55
69780;BME280;57052;55.602;38.096;2023-01-29T08:00:04;100285.38;;;0.96;67.64
69780;BME280;57052;55.602;38.096;2023-01-29T08:02:30;100282.31;;;0.93;67.57
69780;BME280;57052;55.602;38.096;2023-01-29T08:04:56;100275.78;;;0.82;67.66
69780;BME280;57052;55.602;38.096;2023-01-29T08:07:21;100287.44;;;0.88;67.62
69780;BME280;57052;55.602;38.096;2023-01-29T08:09:47;100280.06;;;0.83;67.69
69780;BME280;57052;55.602;38.096;2023-01-29T08:12:13;100285.81;;;0.80;67.83
69780;BME280;57052;55.602;38.096;2023-01-29T08:14:39;100284.97;;;0.86;67.82
69780;BME280;57052;55.602;38.096;2023-01-29T08:17:04;100291.31;;;0.98;67.43
69780;BME280;57052;55.602;38.096;2023-01-29T08:19:30;100275.34;;;0.98;67.35
69780;BME280;57052;55.602;38.096;2023-01-29T08:21:57;100276.13;;;1.05;67.38
69780;BME280;57052;55.602;38.096;2023-01-29T08:24:23;100276.38;;;0.91;67.70
69780;BME280;57052;55.602;38.096;2023-01-29T08:26:49;100271.25;;;0.89;67.54
69780;BME280;57052;55.602;38.096;2023-01-29T08:29:14;100273.28;;;0.94;67.63
69780;BME280;57052;55.602;38.096;2023-01-29T08:31:40;100253.22;;;0.85;67.52
69780;BME280;57052;55.602;38.096;2023-01-29T08:34:06;100255.47;;;0.75;67.38
69780;BME280;57052;55.602;38.096;2023-01-29T08:36:31;100246.47;;;0.69;67.31
69780;BME280;57052;55.602;38.096;2023-01-29T08:38:58;100256.50;;;0.87;67.47
69780;BME280;57052;55.602;38.096;2023-01-29T08:41:23;100252.59;;;0.89;67.92
69780;BME280;57052;55.602;38.096;2023-01-29T08:43:49;100255.44;;;0.88;67.43
69780;BME280;57052;55.602;38.096;2023-01-29T08:46:14;100252.38;;;0.91;67.40
69780;BME280;57052;55.602;38.096;2023-01-29T08:48:40;100257.72;;;0.97;66.93
69780;BME280;57052;55.602;38.096;2023-01-29T08:51:06;100228.41;;;0.84;67.08
69780;BME280;57052;55.602;38.096;2023-01-29T08:53:32;100245.63;;;0.88;67.58
69780;BME280;57052;55.602;38.096;2023-01-29T08:55:57;100244.41;;;0.84;66.82
69780;BME280;57052;55.602;38.096;2023-01-29T08:58:23;100250.53;;;0.91;67.23
69780;BME280;57052;55.602;38.096;2023-01-29T09:00:48;100240.28;;;0.88;67.13
69780;BME280;57052;55.602;38.096;2023-01-29T09:03:14;100224.31;;;0.88;66.79
69780;BME280;57052;55.602;38.096;2023-01-29T09:05:40;100240.88;;;1.03;67.14
69780;BME280;57052;55.602;38.096;2023-01-29T09:08:07;100241.69;;;1.10;66.46
69780;BME280;57052;55.602;38.096;2023-01-29T09:10:34;100241.09;;;1.15;67.04
69780;BME280;57052;55.602;38.096;2023-01-29T09:13:00;100230.00;;;1.18;66.75
69780;BME280;57052;55.602;38.096;2023-01-29T09:15:25;100244.13;;;1.32;66.58
69780;BME280;57052;55.602;38.096;2023-01-29T09:17:51;100229.31;;;1.36;66.08
69780;BME280;57052;55.602;38.096;2023-01-29T09:20:17;100207.66;;;1.12;66.26
69780;BME280;57052;55.602;38.096;2023-01-29T09:22:44;100228.53;;;1.35;65.46
69780;BME280;57052;55.602;38.096;2023-01-29T09:25:10;100219.94;;;1.26;65.35
69780;BME280;57052;55.602;38.096;2023-01-29T09:27:36;100201.09;;;1.15;65.41
69780;BME280;57052;55.602;38.096;2023-01-29T09:30:04;100220.75;;;1.20;65.57
69780;BME280;57052;55.602;38.096;2023-01-29T09:32:31;100224.47;;;1.19;65.40
69780;BME280;57052;55.602;38.096;2023-01-29T09:34:56;100220.38;;;1.17;65.73
69780;BME280;57052;55.602;38.096;2023-01-29T09:37:22;100221.19;;;1.11;65.87
69780;BME280;57052;55.602;38.096;2023-01-29T09:39:48;100215.25;;;1.09;65.53
69780;BME280;57052;55.602;38.096;2023-01-29T09:42:22;100213.44;;;0.96;65.34
69780;BME280;57052;55.602;38.096;2023-01-29T09:45:12;100210.78;;;0.83;65.24
69780;BME280;57052;55.602;38.096;2023-01-29T09:47:39;100205.25;;;0.91;66.22
69780;BME280;57052;55.602;38.096;2023-01-29T09:50:36;100206.50;;;0.82;64.71
69780;BME280;57052;55.602;38.096;2023-01-29T09:53:24;100188.03;;;0.87;65.59
69780;BME280;57052;55.602;38.096;2023-01-29T09:56:00;100192.53;;;1.00;65.61
69780;BME280;57052;55.602;38.096;2023-01-29T09:58:33;100186.16;;;1.07;65.80
69780;BME280;57052;55.602;38.096;2023-01-29T10:04:35;100173.84;;;1.06;64.42
69780;BME280;57052;55.602;38.096;2023-01-29T10:12:43;100155.56;;;1.16;64.36
69780;BME280;57052;55.602;38.096;2023-01-29T10:15:33;100163.31;;;1.31;63.82
69780;BME280;57052;55.602;38.096;2023-01-29T10:26:22;100154.69;;;1.29;64.70
69780;BME280;57052;55.602;38.096;2023-01-29T10:28:51;100143.56;;;1.39;64.63
69780;BME280;57052;55.602;38.096;2023-01-29T10:31:24;100129.59;;;1.43;64.68
69780;BME280;57052;55.602;38.096;2023-01-29T10:33:58;100126.53;;;1.46;63.53
69780;BME280;57052;55.602;38.096;2023-01-29T10:36:31;100119.75;;;1.50;63.75
69780;BME280;57052;55.602;38.096;2023-01-29T10:38:58;100109.31;;;1.42;64.04
69780;BME280;57052;55.602;38.096;2023-01-29T10:50:24;100100.31;;;1.37;62.04
69780;BME280;57052;55.602;38.096;2023-01-29T10:53:18;100097.41;;;1.38;62.76
69780;BME280;57052;55.602;38.096;2023-01-29T10:58:50;100069.81;;;1.26;63.90
69780;BME280;57052;55.602;38.096;2023-01-29T11:01:16;100066.72;;;1.29;64.64
69780;BME280;57052;55.602;38.096;2023-01-29T11:03:42;100065.28;;;1.26;64.61
69780;BME280;57052;55.602;38.096;2023-01-29T11:06:24;100049.25;;;1.33;64.50
69780;BME280;57052;55.602;38.096;2023-01-29T11:11:49;100039.69;;;1.19;64.79
69780;BME280;57052;55.602;38.096;2023-01-29T11:14:36;100031.81;;;0.99;64.29
69780;BME280;57052;55.602;38.096;2023-01-29T11:17:03;100030.09;;;1.11;65.18
69780;BME280;57052;55.602;38.096;2023-01-29T11:19:38;100010.06;;;1.02;64.35
69780;BME280;57052;55.602;38.096;2023-01-29T11:22:03;100019.63;;;1.16;64.87
69780;BME280;57052;55.602;38.096;2023-01-29T11:24:29;100025.97;;;1.15;64.77
69780;BME280;57052;55.602;38.096;2023-01-29T11:26:58;100022.03;;;1.24;64.99
69780;BME280;57052;55.602;38.096;2023-01-29T11:31:58;100037.97;;;1.38;64.31
69780;BME280;57052;55.602;38.096;2023-01-29T11:34:25;100031.31;;;1.47;64.88
69780;BME280;57052;55.602;38.096;2023-01-29T11:37:15;100029.47;;;1.47;63.68
69780;BME280;57052;55.602;38.096;2023-01-29T11:39:44;100028.66;;;1.47;63.59
69780;BME280;57052;55.602;38.096;2023-01-29T11:42:19;100035.72;;;1.35;63.81
69780;BME280;57052;55.602;38.096;2023-01-29T11:44:45;100020.16;;;1.32;63.71
69780;BME280;57052;55.602;38.096;2023-01-29T11:49:50;100028.31;;;1.37;63.30
69780;BME280;57052;55.602;38.096;2023-01-29T11:52:19;100007.59;;;1.39;64.42
69780;BME280;57052;55.602;38.096;2023-01-29T11:55:12;100035.06;;;1.39;62.62
69780;BME280;57052;55.602;38.096;2023-01-29T11:57:41;100032.00;;;1.36;64.24
69780;BME280;57052;55.602;38.096;2023-01-29T12:00:19;100036.09;;;1.38;63.96
69780;BME280;57052;55.602;38.096;2023-01-29T12:02:55;100024.88;;;1.29;63.68
69780;BME280;57052;55.602;38.096;2023-01-29T12:05:23;100014.69;;;1.20;64.25
69780;BME280;57052;55.602;38.096;2023-01-29T12:07:53;100014.69;;;1.20;64.03
69780;BME280;57052;55.602;38.096;2023-01-29T12:10:41;100025.06;;;1.28;63.95
69780;BME280;57052;55.602;38.096;2023-01-29T12:15:37;100032.47;;;1.33;64.19
69780;BME280;57052;55.602;38.096;2023-01-29T12:21:00;100024.13;;;1.16;63.65
69780;BME280;57052;55.602;38.096;2023-01-29T12:26:42;100026.97;;;1.21;64.15
69780;BME280;57052;55.602;38.096;2023-01-29T12:34:48;100014.00;;;1.31;63.84
69780;BME280;57052;55.602;38.096;2023-01-29T12:37:27;100009.88;;;1.35;63.98
69780;BME280;57052;55.602;38.096;2023-01-29T12:39:56;100008.22;;;1.34;64.67
69780;BME280;57052;55.602;38.096;2023-01-29T12:42:23;99991.94;;;1.17;64.51
69780;BME280;57052;55.602;38.096;2023-01-29T12:45:00;100000.13;;;1.16;63.48
69780;BME280;57052;55.602;38.096;2023-01-29T12:47:55;100002.97;;;1.21;63.91
69780;BME280;57052;55.602;38.096;2023-01-29T12:50:31;99982.13;;;1.11;63.56
69780;BME280;57052;55.602;38.096;2023-01-29T12:55:47;99996.38;;;1.30;63.61
69780;BME280;57052;55.602;38.096;2023-01-29T12:58:24;99999.63;;;1.32;63.70
69780;BME280;57052;55.602;38.096;2023-01-29T13:00:56;99970.22;;;1.14;64.09
69780;BME280;57052;55.602;38.096;2023-01-29T13:03:45;100004.41;;;1.23;63.13
69780;BME280;57052;55.602;38.096;2023-01-29T13:06:16;99996.78;;;1.27;63.60
69780;BME280;57052;55.602;38.096;2023-01-29T13:08:50;99997.34;;;1.36;63.90
69780;BME280;57052;55.602;38.096;2023-01-29T13:11:25;99988.72;;;1.40;64.22
69780;BME280;57052;55.602;38.096;2023-01-29T13:13:58;99988.56;;;1.35;63.78
69780;BME280;57052;55.602;38.096;2023-01-29T13:16:27;99989.13;;;1.37;64.08
69780;BME280;57052;55.602;38.096;2023-01-29T13:19:19;99990.34;;;1.41;63.13
69780;BME280;57052;55.602;38.096;2023-01-29T13:21:48;99991.00;;;1.37;62.99
69780;BME280;57052;55.602;38.096;2023-01-29T13:24:17;99993.75;;;1.48;63.49
69780;BME280;57052;55.602;38.096;2023-01-29T13:26:45;99984.50;;;1.51;63.67
69780;BME280;57052;55.602;38.096;2023-01-29T13:29:25;99989.69;;;1.46;62.97
69780;BME280;57052;55.602;38.096;2023-01-29T13:31:54;99990.56;;;1.40;63.41
69780;BME280;57052;55.602;38.096;2023-01-29T13:34:33;99995.00;;;1.46;62.92
69780;BME280;57052;55.602;38.096;2023-01-29T13:37:08;99988.97;;;1.32;63.76
69780;BME280;57052;55.602;38.096;2023-01-29T13:39:37;99969.75;;;1.23;63.48
69780;BME280;57052;55.602;38.096;2023-01-29T13:42:16;99984.50;;;1.26;63.47
69780;BME280;57052;55.602;38.096;2023-01-29T13:44:44;99974.53;;;1.15;63.24
69780;BME280;57052;55.602;38.096;2023-01-29T13:47:24;99968.56;;;1.19;63.83
69780;BME280;57052;55.602;38.096;2023-01-29T13:52:37;99970.63;;;1.11;63.92
69780;BME280;57052;55.602;38.096;2023-01-29T14:10:39;99972.94;;;1.07;64.22
69780;BME280;57052;55.602;38.096;2023-01-29T14:18:24;99961.22;;;1.08;64.22
69780;BME280;57052;55.602;38.096;2023-01-29T14:20:56;99973.53;;;1.09;64.41
69780;BME280;57052;55.602;38.096;2023-01-29T14:29:16;99963.94;;;1.02;64.42
69780;BME280;57052;55.602;38.096;2023-01-29T14:31:52;99944.28;;;0.96;63.93
69780;BME280;57052;55.602;38.096;2023-01-29T14:34:24;99952.47;;;1.01;64.32
69780;BME280;57052;55.602;38.096;2023-01-29T14:36:56;99933.63;;;0.96;64.45
69780;BME280;57052;55.602;38.096;2023-01-29T14:41:52;99939.00;;;0.90;64.30
69780;BME280;57052;55.602;38.096;2023-01-29T14:53:23;99935.94;;;0.86;64.68
69780;BME280;57052;55.602;38.096;2023-01-29T15:01:53;99943.47;;;0.96;64.60
69780;BME280;57052;55.602;38.096;2023-01-29T15:04:35;99933.03;;;0.94;65.08
69780;BME280;57052;55.602;38.096;2023-01-29T15:07:11;99942.81;;;1.00;64.84
69780;BME280;57052;55.602;38.096;2023-01-29T15:12:27;99932.38;;;0.99;64.93
69780;BME280;57052;55.602;38.096;2023-01-29T15:20:33;99936.28;;;0.96;65.17
69780;BME280;57052;55.602;38.096;2023-01-29T15:23:00;99929.94;;;0.97;65.04
69780;BME280;57052;55.602;38.096;2023-01-29T15:25:35;99918.16;;;0.80;65.30
69780;BME280;57052;55.602;38.096;2023-01-29T15:28:03;99941.22;;;0.93;65.16
69780;BME280;57052;55.602;38.096;2023-01-29T15:30:34;99935.91;;;0.93;65.44
69780;BME280;57052;55.602;38.096;2023-01-29T15:33:01;99941.19;;;0.99;65.25
69780;BME280;57052;55.602;38.096;2023-01-29T15:35:35;99939.97;;;0.95;65.34